This is the latest recevied weather packets stored in our database for station/object KB4KY. If no packets are shown the sender has not sent any weather packets the latest 10 day(s).
| Time | Temp. | Humidity | Pressure | Rain* | Wind** | Luminosity | Snow |
|---|---|---|---|---|---|---|---|
| 1778061817 | 10° C | 96% | 1008.4 hPa | 0.76 mm | - | - | - |
| 1778061803 | 10° C | 97% | 1008.4 hPa | 0.76 mm | - | - | - |
| 1778061503 | 10° C | 96% | 1008.4 hPa | 0.76 mm | - | - | - |
| 1778061266 | 10° C | 97% | 1008.6 hPa | 1.27 mm | - | - | - |
| 1778061203 | 10° C | 97% | 1008.6 hPa | 1.27 mm | - | - | - |
| 1778060902 | 10° C | 97% | 1008.3 hPa | 1.52 mm | - | - | - |
| 1778060602 | 10° C | 96% | 1008.3 hPa | 2.03 mm | - | - | - |
| 1778060302 | 10.56° C | 97% | 1008.3 hPa | 2.03 mm | - | - | - |
| 1778060004 | 10.56° C | 97% | 1008.4 hPa | 2.29 mm | - | - | - |
| 1778059707 | 10.56° C | 97% | 1008.2 hPa | 2.03 mm | - | - | - |
| 1778059403 | 10.56° C | 97% | 1008 hPa | 2.29 mm | - | - | - |
| 1778059101 | 10.56° C | 97% | 1007.9 hPa | 2.29 mm | - | - | - |
| 1778058801 | 11.11° C | 97% | 1007.8 hPa | 2.29 mm | - | - | - |
| 1778058500 | 11.11° C | 97% | 1007.4 hPa | 2.79 mm | - | - | - |
| 1778058200 | 11.11° C | 97% | 1007.3 hPa | 2.54 mm | - | - | - |
| 1778057932 | 11.11° C | 97% | 1008 hPa | 2.03 mm | - | - | - |
| 1778057900 | 11.11° C | 97% | 1007.4 hPa | 2.54 mm | - | - | - |
| 1778057601 | 11.11° C | 97% | 1008 hPa | 2.03 mm | - | - | - |
| 1778057350 | 11.11° C | 97% | 1008 hPa | 1.78 mm | - | - | - |
| 1778057299 | 11.11° C | 97% | 1008 hPa | 1.78 mm | - | - | - |
| 1778057230 | 11.11° C | 97% | 1008 hPa | 1.27 mm | - | - | - |
| 1778057001 | 11.11° C | 97% | 1008 hPa | 1.27 mm | - | - | - |
| 1778056698 | 11.11° C | 97% | 1007.7 hPa | 1.27 mm | - | - | - |
| 1778056677 | 11.11° C | 97% | 1007.7 hPa | 1.27 mm | - | - | - |
| 1778056450 | 11.11° C | 97% | 1007.7 hPa | 1.27 mm | - | - | - |
* Rain latest hour (hover to see other rain measurements)
** Current wind speed in m/s (hover to see current wind gust speed)